Time;durP1;ratioP1;P1;durP2;ratioP2;P2;SDS_P1;SDS_P2;PMS_P1;PMS_P2;Temp;Humidity;BMP_temperature;BMP_pressure;BME280_temperature;BME280_humidity;BME280_pressure;Samples;Min_cycle;Max_cycle;Signal;HPM_P1;HPM_P2
2023/04/20 00:01:26;;;;;;;3.05;2.20;;;;;;;7.25;67.47;102516.41;5028385;28;20025;-54
2023/04/20 00:03:51;;;;;;;3.92;2.25;;;;;;;7.13;67.74;102518.06;5027270;28;20032;-60
2023/04/20 00:06:17;;;;;;;6.47;2.38;;;;;;;7.07;68.38;102513.66;5028012;28;20034;-57
2023/04/20 00:08:42;;;;;;;6.15;2.20;;;;;;;7.15;68.69;102504.97;5028353;28;20427;-59
2023/04/20 00:11:08;;;;;;;6.72;2.67;;;;;;;7.08;68.61;102509.28;5029051;28;20049;-60
2023/04/20 00:13:33;;;;;;;9.32;2.28;;;;;;;7.10;68.44;102506.69;5047266;28;20052;-57
2023/04/20 00:15:59;;;;;;;5.03;2.20;;;;;;;7.04;69.44;102507.50;5047005;28;20088;-58
2023/04/20 00:18:24;;;;;;;5.10;2.38;;;;;;;6.99;70.78;102502.22;5047387;28;20523;-58
2023/04/20 00:20:49;;;;;;;2.85;2.10;;;;;;;6.94;71.37;102496.94;5047777;28;20029;-57
2023/04/20 00:23:15;;;;;;;7.70;2.10;;;;;;;6.87;71.88;102499.50;5047175;28;20527;-61
2023/04/20 00:25:40;;;;;;;11.27;2.67;;;;;;;6.86;70.85;102495.13;5046610;28;20029;-55
2023/04/20 00:28:05;;;;;;;3.83;2.70;;;;;;;6.73;71.64;102496.75;5047027;28;20456;-56
2023/04/20 00:30:31;;;;;;;9.10;2.15;;;;;;;6.75;71.81;102501.16;5047292;28;20079;-59
2023/04/20 00:32:56;;;;;;;4.53;2.10;;;;;;;6.80;71.51;102496.81;5047791;28;20053;-57
2023/04/20 00:35:22;;;;;;;8.35;2.53;;;;;;;6.75;71.28;102495.94;5046180;28;20036;-57
2023/04/20 00:37:47;;;;;;;3.30;2.63;;;;;;;6.79;70.46;102497.69;5047155;28;20507;-57
2023/04/20 00:40:12;;;;;;;3.13;2.10;;;;;;;6.80;69.98;102485.47;5046277;28;20067;-58
2023/04/20 00:42:39;;;;;;;4.57;2.20;;;;;;;6.78;70.19;102493.34;5046902;28;20471;-63
2023/04/20 00:45:05;;;;;;;3.97;2.30;;;;;;;6.77;71.96;102483.69;5046893;28;20509;-58
2023/04/20 00:47:30;;;;;;;3.92;2.20;;;;;;;6.74;69.77;102491.53;5045224;28;20029;-61
2023/04/20 00:49:56;;;;;;;2.70;2.15;;;;;;;6.76;71.51;102483.69;5047254;28;20527;-59
2023/04/20 00:52:21;;;;;;;3.15;2.00;;;;;;;6.69;71.77;102480.16;5045407;28;20047;-57
2023/04/20 00:54:47;;;;;;;2.53;2.33;;;;;;;6.69;71.73;102474.91;5028853;28;20551;-59
2023/04/20 00:57:13;;;;;;;4.70;2.00;;;;;;;6.66;70.55;102467.91;5046261;28;20029;-59
2023/04/20 00:59:39;;;;;;;8.35;2.50;;;;;;;6.65;71.23;102467.88;5045659;28;20052;-58
2023/04/20 01:02:05;;;;;;;5.80;2.40;;;;;;;6.67;70.98;102466.13;5046663;28;20063;-58
2023/04/20 01:04:30;;;;;;;7.72;2.30;;;;;;;6.69;72.08;102462.66;5099324;22;20073;-62
2023/04/20 01:06:56;;;;;;;4.78;2.17;;;;;;;6.62;72.08;102452.16;5024638;28;20021;-59
2023/04/20 01:09:21;;;;;;;4.35;2.47;;;;;;;6.57;71.63;102445.09;5026598;28;20037;-60
2023/04/20 01:11:47;;;;;;;4.50;2.20;;;;;;;6.59;71.79;102449.50;5025740;28;20032;-58
2023/04/20 01:14:12;;;;;;;4.45;2.05;;;;;;;6.57;73.04;102447.72;5023795;28;20029;-56
2023/04/20 01:16:38;;;;;;;5.90;2.50;;;;;;;6.60;71.89;102436.41;5008866;28;20018;-56
2023/04/20 01:19:03;;;;;;;2.45;1.95;;;;;;;6.52;71.06;102424.97;5026393;28;20045;-54
2023/04/20 01:21:28;;;;;;;4.38;2.15;;;;;;;6.55;70.83;102420.66;5026148;28;20017;-59
2023/04/20 01:23:54;;;;;;;2.80;2.20;;;;;;;6.60;69.92;102422.44;5025601;28;20499;-60
2023/04/20 01:26:22;;;;;;;9.25;2.10;;;;;;;6.55;70.04;102418.03;5022133;28;20057;-53
2023/04/20 01:28:47;;;;;;;4.03;2.30;;;;;;;6.60;70.39;102412.84;5026187;28;20035;-52
2023/04/20 01:31:13;;;;;;;5.70;3.17;;;;;;;6.54;70.09;102404.94;5025478;28;20109;-58
2023/04/20 01:33:39;;;;;;;5.03;2.33;;;;;;;6.55;69.44;102406.66;5026378;28;20399;-62
2023/04/20 01:36:05;;;;;;;5.80;2.72;;;;;;;6.57;70.10;102403.19;5026763;28;20021;-57
2023/04/20 01:38:33;;;;;;;5.05;2.60;;;;;;;6.59;71.30;102397.97;5024732;28;20025;-61
2023/04/20 01:40:59;;;;;;;2.70;2.20;;;;;;;6.67;70.02;102392.78;5026155;28;20376;-57
2023/04/20 01:43:25;;;;;;;10.02;2.70;;;;;;;6.61;72.06;102385.78;5025467;28;20490;-56
2023/04/20 01:45:50;;;;;;;3.28;2.28;;;;;;;6.57;72.29;102381.38;5026908;28;20033;-61
2023/04/20 01:48:15;;;;;;;2.63;2.20;;;;;;;6.56;73.87;102383.13;5026072;28;20032;-57
2023/04/20 01:50:41;;;;;;;3.20;2.25;;;;;;;6.55;75.07;102378.75;5025903;28;20106;-58
2023/04/20 01:53:06;;;;;;;3.70;2.58;;;;;;;6.65;76.10;102378.81;5025879;28;20438;-56
2023/04/20 01:55:32;;;;;;;3.47;2.58;;;;;;;6.63;77.75;102377.94;5023721;28;20034;-54
2023/04/20 01:57:58;;;;;;;5.70;2.22;;;;;;;6.68;79.37;102379.72;5026254;28;20030;-59
2023/04/20 02:00:23;;;;;;;4.03;2.30;;;;;;;6.78;80.36;102372.81;5025439;28;20087;-57
2023/04/20 02:02:48;;;;;;;5.60;2.70;;;;;;;6.86;81.37;102377.22;5025542;28;20522;-62
2023/04/20 02:05:14;;;;;;;4.07;2.72;;;;;;;6.92;81.51;102365.03;5025968;28;20037;-54
2023/04/20 02:07:39;;;;;;;2.88;2.40;;;;;;;6.98;81.88;102361.56;5026005;28;20361;-58
2023/04/20 02:10:05;;;;;;;4.00;2.65;;;;;;;6.97;82.73;102361.53;5025449;28;20546;-54
2023/04/20 02:12:30;;;;;;;5.40;2.75;;;;;;;7.02;84.11;102357.22;5026600;28;20029;-61
2023/04/20 02:14:56;;;;;;;5.32;2.90;;;;;;;7.05;84.58;102358.09;5025700;28;20026;-58
2023/04/20 02:17:21;;;;;;;5.45;2.65;;;;;;;7.10;85.75;102349.41;5024944;28;20057;-57
2023/04/20 02:19:47;;;;;;;4.45;2.85;;;;;;;7.14;85.78;102348.53;5024938;28;20018;-59
2023/04/20 02:22:12;;;;;;;5.93;2.70;;;;;;;7.15;86.88;102350.28;5025811;28;20392;-60
2023/04/20 02:24:38;;;;;;;5.50;2.83;;;;;;;7.14;87.94;102349.44;5025451;28;20033;-61
2023/04/20 02:27:03;;;;;;;3.72;3.00;;;;;;;7.20;89.02;102345.94;5016337;28;20030;-58
2023/04/20 02:29:29;;;;;;;4.10;3.15;;;;;;;7.16;90.54;102344.16;5006535;28;20022;-68
2023/04/20 02:31:54;;;;;;;5.47;3.17;;;;;;;7.11;92.36;102335.41;5005735;28;20030;-57
2023/04/20 02:34:20;;;;;;;7.78;3.08;;;;;;;7.14;92.92;102335.44;5006392;28;20048;-58
2023/04/20 02:36:46;;;;;;;4.35;3.58;;;;;;;7.10;95.28;102333.69;5006267;28;20388;-61
2023/04/20 02:39:11;;;;;;;4.43;3.45;;;;;;;7.19;95.66;102329.34;5016294;28;20471;-58
2023/04/20 02:41:36;;;;;;;5.97;3.60;;;;;;;7.24;96.40;102318.88;5025455;28;20026;-57
2023/04/20 02:44:02;;;;;;;8.88;3.45;;;;;;;7.23;97.29;102322.38;5025478;28;20026;-56
2023/04/20 02:46:27;;;;;;;7.13;3.33;;;;;;;7.25;98.05;102330.25;5026160;28;20021;-60
2023/04/20 02:48:54;;;;;;;8.07;3.40;;;;;;;7.25;98.53;102319.75;5026142;28;20025;-58
2023/04/20 02:51:19;;;;;;;5.53;3.30;;;;;;;7.32;98.97;102316.28;5018350;28;20614;-60
2023/04/20 02:53:45;;;;;;;5.60;3.80;;;;;;;7.36;98.78;102309.28;5025122;28;20128;-57
2023/04/20 02:56:10;;;;;;;4.90;3.50;;;;;;;7.41;98.54;102307.56;5024249;28;20430;-61
2023/04/20 02:58:36;;;;;;;6.93;3.80;;;;;;;7.48;98.48;102309.34;5025702;28;20098;-57
2023/04/20 03:01:02;;;;;;;5.35;3.97;;;;;;;7.51;99.22;102311.97;5025812;28;20029;-62
2023/04/20 03:03:28;;;;;;;9.50;4.20;;;;;;;7.56;98.97;102307.59;5026684;28;20042;-57
2023/04/20 03:05:54;;;;;;;5.00;3.80;;;;;;;7.58;99.21;102302.34;5024046;28;20083;-61
2023/04/20 03:08:20;;;;;;;6.05;3.70;;;;;;;7.63;98.95;102297.13;5006555;28;20042;-59
2023/04/20 03:10:45;;;;;;;10.27;3.95;;;;;;;7.76;98.22;102296.28;5006484;28;20025;-61
2023/04/20 03:13:10;;;;;;;6.90;3.85;;;;;;;7.75;98.33;102289.28;5009393;28;20030;-57
2023/04/20 03:15:36;;;;;;;6.22;4.03;;;;;;;7.79;98.44;102295.38;5009619;28;20116;-60
2023/04/20 03:18:01;;;;;;;6.50;4.13;;;;;;;7.74;98.34;102287.53;5009412;28;20026;-57
2023/04/20 03:20:26;;;;;;;5.15;3.80;;;;;;;7.70;98.97;102285.75;5015280;28;20025;-62
2023/04/20 03:22:52;;;;;;;10.73;3.67;;;;;;;7.55;99.80;102287.50;5027877;28;20057;-56
2023/04/20 03:25:17;;;;;;;6.03;3.90;;;;;;;7.50;100.00;102291.88;5028632;28;20026;-53
2023/04/20 03:27:44;;;;;;;8.05;3.70;;;;;;;7.50;100.00;102284.00;5013556;28;20021;-60
2023/04/20 03:30:11;;;;;;;5.28;3.55;;;;;;;7.53;100.00;102273.47;5019474;28;20666;-56
2023/04/20 03:32:37;;;;;;;7.88;3.80;;;;;;;7.56;100.00;102277.88;5029604;28;20504;-59
2023/04/20 03:35:03;;;;;;;10.00;3.90;;;;;;;7.63;100.00;102276.13;5028667;28;20067;-58
2023/04/20 03:37:28;;;;;;;4.90;3.22;;;;;;;7.69;100.00;102268.28;5030002;28;20091;-61
2023/04/20 03:39:53;;;;;;;5.28;3.35;;;;;;;7.83;99.77;102269.16;5028453;28;20025;-58
2023/04/20 03:42:19;;;;;;;6.53;3.75;;;;;;;7.96;98.81;102264.81;5028414;28;20476;-59
2023/04/20 03:44:44;;;;;;;6.60;3.88;;;;;;;8.04;98.38;102263.94;5026821;28;20030;-57
2023/04/20 03:47:09;;;;;;;8.18;3.88;;;;;;;8.09;97.89;102255.16;5028390;28;20417;-59
2023/04/20 03:49:35;;;;;;;7.35;4.40;;;;;;;7.92;99.22;102249.06;5029227;28;20037;-58
2023/04/20 03:52:00;;;;;;;9.18;3.92;;;;;;;8.02;98.96;102256.06;5028789;28;20129;-61
2023/04/20 03:54:25;;;;;;;6.95;3.47;;;;;;;8.09;99.01;102249.03;5027253;28;20071;-58
2023/04/20 03:56:51;;;;;;;7.25;3.53;;;;;;;8.10;99.39;102245.56;5027087;28;20048;-56
2023/04/20 03:59:16;;;;;;;7.28;3.65;;;;;;;8.09;99.79;102244.66;5027637;28;20109;-60
2023/04/20 04:01:42;;;;;;;5.57;3.63;;;;;;;8.15;99.99;102242.91;5011489;28;20381;-57
2023/04/20 04:04:08;;;;;;;6.40;3.00;;;;;;;8.21;99.69;102235.91;5008021;28;20034;-59
2023/04/20 04:06:33;;;;;;;4.38;3.63;;;;;;;8.18;100.00;102238.53;5008235;28;20076;-58
2023/04/20 04:08:59;;;;;;;6.78;3.92;;;;;;;8.18;100.00;102241.16;5008587;28;20029;-56
2023/04/20 04:11:24;;;;;;;5.32;3.63;;;;;;;8.25;100.00;102241.16;5007506;28;20041;-58
2023/04/20 04:13:50;;;;;;;7.70;4.10;;;;;;;8.27;100.00;102239.38;5008293;28;20834;-60
2023/04/20 04:16:15;;;;;;;8.20;4.15;;;;;;;8.21;100.00;102240.25;5021537;28;20065;-58
2023/04/20 04:18:42;;;;;;;8.20;3.47;;;;;;;8.18;100.00;102237.63;5027663;28;20178;-56
2023/04/20 04:21:09;;;;;;;12.93;3.50;;;;;;;8.15;100.00;102235.00;5027355;28;20080;-55
2023/04/20 04:23:34;;;;;;;8.25;3.30;;;;;;;8.17;100.00;102230.66;5027862;28;20091;-58
2023/04/20 04:26:00;;;;;;;7.53;3.38;;;;;;;8.18;100.00;102227.13;5020369;28;20025;-55
2023/04/20 04:28:26;;;;;;;5.65;3.30;;;;;;;8.17;100.00;102225.41;5016980;28;20028;-57
2023/04/20 04:30:53;;;;;;;8.00;3.55;;;;;;;8.18;100.00;102227.13;5028592;28;20356;-57
2023/04/20 04:33:19;;;;;;;9.98;3.50;;;;;;;8.13;100.00;102219.25;5027925;28;20065;-60
2023/04/20 04:35:44;;;;;;;9.77;3.70;;;;;;;8.23;100.00;102214.88;5028466;28;20030;-58
2023/04/20 04:38:12;;;;;;;6.85;3.35;;;;;;;8.19;100.00;102208.75;5006780;28;20028;-58
2023/04/20 04:40:38;;;;;;;9.07;3.38;;;;;;;8.25;100.00;102201.75;5021397;28;20388;-59
2023/04/20 04:43:04;;;;;;;4.05;2.83;;;;;;;8.27;100.00;102189.47;5021870;28;20026;-57
2023/04/20 04:45:29;;;;;;;4.55;2.92;;;;;;;8.27;100.00;102190.38;5022694;28;20033;-56
2023/04/20 04:47:55;;;;;;;6.28;2.95;;;;;;;8.31;100.00;102191.25;5028167;28;20025;-55
2023/04/20 04:50:21;;;;;;;6.65;3.00;;;;;;;8.19;100.00;102189.53;5027070;28;20064;-54
2023/04/20 04:52:46;;;;;;;6.47;2.50;;;;;;;8.31;100.00;102192.09;5023241;28;20030;-58
2023/04/20 04:55:12;;;;;;;4.93;2.90;;;;;;;8.29;100.00;102180.75;5026106;28;20021;-60
2023/04/20 04:57:37;;;;;;;9.75;2.80;;;;;;;8.27;100.00;102177.25;5023440;28;20022;-58
2023/04/20 05:00:08;;;;;;;9.48;4.38;;;;;;;8.38;100.00;102176.31;5025193;28;20087;-60
2023/04/20 05:02:34;;;;;;;7.82;3.20;;;;;;;8.47;100.00;102177.19;5025323;28;20032;-59
2023/04/20 05:04:59;;;;;;;4.13;2.63;;;;;;;8.42;100.00;102178.06;5027643;28;20117;-59
2023/04/20 05:07:25;;;;;;;5.78;2.60;;;;;;;8.36;100.00;102170.22;5025374;28;20387;-55
2023/04/20 05:09:50;;;;;;;12.00;2.80;;;;;;;8.40;100.00;102164.94;5022630;28;20030;-57
2023/04/20 05:12:15;;;;;;;5.97;2.50;;;;;;;8.38;100.00;102163.19;5024170;28;20083;-58
2023/04/20 05:14:41;;;;;;;4.70;2.80;;;;;;;8.39;100.00;102152.69;5026323;28;20498;-58
2023/04/20 05:17:06;;;;;;;10.52;2.80;;;;;;;8.42;100.00;102157.03;5016359;28;20759;-54
2023/04/20 05:19:31;;;;;;;9.00;3.00;;;;;;;8.46;100.00;102151.78;5020686;28;20022;-56
2023/04/20 05:21:57;;;;;;;5.88;2.28;;;;;;;8.53;100.00;102147.38;5025950;28;20024;-56
2023/04/20 05:24:22;;;;;;;9.02;2.60;;;;;;;8.47;100.00;102150.91;5022218;28;20080;-58
2023/04/20 05:26:47;;;;;;;4.80;2.40;;;;;;;8.53;100.00;102150.03;5020456;28;20033;-55
2023/04/20 05:29:14;;;;;;;8.68;2.60;;;;;;;8.47;100.00;102150.91;5005728;28;20061;-54
2023/04/20 05:31:39;;;;;;;5.72;2.30;;;;;;;8.50;100.00;102142.16;5004893;28;20549;-58
2023/04/20 05:34:05;;;;;;;6.28;2.80;;;;;;;8.63;100.00;102134.22;5023516;28;20030;-60
2023/04/20 05:36:32;;;;;;;3.63;2.00;;;;;;;8.65;100.00;102137.72;5023883;28;20033;-62
2023/04/20 05:38:57;;;;;;;4.07;2.10;;;;;;;8.68;100.00;102132.47;5023188;28;20021;-54
2023/04/20 05:41:26;;;;;;;11.00;2.60;;;;;;;8.79;100.00;102141.16;5021349;28;20476;-56
2023/04/20 05:43:52;;;;;;;7.22;2.50;;;;;;;8.80;100.00;102137.66;5022993;28;20480;-58
2023/04/20 05:46:17;;;;;;;4.80;2.63;;;;;;;8.80;100.00;102137.66;5024396;28;20079;-56
2023/04/20 05:48:42;;;;;;;5.18;1.85;;;;;;;8.78;100.00;102142.03;5009960;28;20629;-62
2023/04/20 05:51:08;;;;;;;6.50;2.20;;;;;;;8.70;100.00;102149.97;5005046;28;20502;-53
2023/04/20 05:53:33;;;;;;;9.40;2.33;;;;;;;8.76;100.00;102142.94;5016039;28;20037;-55
2023/04/20 05:55:58;;;;;;;9.32;2.35;;;;;;;8.82;98.22;102135.88;5024617;28;20037;-61
2023/04/20 05:58:24;;;;;;;4.85;2.10;;;;;;;8.83;95.51;102148.16;5037218;28;20174;-55
2023/04/20 06:00:49;;;;;;;8.57;2.47;;;;;;;9.08;91.72;102149.75;5043999;28;20519;-60
2023/04/20 06:03:15;;;;;;;5.10;2.05;;;;;;;8.94;87.84;102147.22;5031581;28;20047;-56
2023/04/20 06:05:40;;;;;;;8.77;2.75;;;;;;;9.21;86.76;102153.16;5022224;28;20128;-61
2023/04/20 06:08:06;;;;;;;4.88;1.90;;;;;;;9.05;87.64;102150.66;5030281;28;20414;-58
2023/04/20 06:10:32;;;;;;;3.53;1.98;;;;;;;9.07;87.41;102158.53;5044102;28;20040;-59
2023/04/20 06:12:58;;;;;;;10.52;2.42;;;;;;;9.02;87.73;102149.78;5037341;28;20025;-54
2023/04/20 06:15:23;;;;;;;7.55;2.30;;;;;;;9.17;88.51;102157.59;5023729;28;20105;-54
2023/04/20 06:17:49;;;;;;;7.65;2.40;;;;;;;9.22;88.05;102160.19;5022647;28;20034;-56
2023/04/20 06:20:14;;;;;;;2.30;2.00;;;;;;;9.32;87.03;102155.72;5023389;28;20412;-63
2023/04/20 06:22:44;;;;;;;7.82;2.40;;;;;;;9.16;88.60;102154.97;5021962;28;20024;-55
2023/04/20 06:25:10;;;;;;;12.68;2.92;;;;;;;9.10;87.52;102143.59;5021514;28;20040;-61
2023/04/20 06:27:35;;;;;;;3.75;2.00;;;;;;;9.16;88.23;102141.81;5024090;28;20460;-57
2023/04/20 06:30:00;;;;;;;6.70;2.20;;;;;;;9.27;86.00;102147.84;5010846;28;20030;-64
2023/04/20 06:32:26;;;;;;;7.40;2.22;;;;;;;9.39;86.95;102140.78;5004307;28;20504;-60
2023/04/20 06:34:51;;;;;;;4.60;2.13;;;;;;;9.37;87.10;102138.16;5008201;28;20061;-59
2023/04/20 06:37:17;;;;;;;5.68;2.00;;;;;;;9.35;86.79;102130.28;5023194;28;20037;-54
2023/04/20 06:39:42;;;;;;;3.17;2.10;;;;;;;9.36;87.06;102133.75;5020278;28;20034;-58
2023/04/20 06:42:08;;;;;;;6.60;3.00;;;;;;;9.42;86.84;102135.50;5023908;28;20485;-56
2023/04/20 06:44:33;;;;;;;3.60;2.10;;;;;;;9.36;86.36;102141.66;5022120;28;20037;-56
2023/04/20 06:46:58;;;;;;;7.63;2.20;;;;;;;8.96;89.12;102125.28;5008583;28;20044;-59
2023/04/20 06:49:24;;;;;;;3.45;2.40;;;;;;;9.04;89.20;102127.88;5007213;28;20469;-59
2023/04/20 06:51:49;;;;;;;4.50;2.58;;;;;;;9.06;89.25;102127.88;5008742;28;21175;-63
2023/04/20 06:54:15;;;;;;;6.40;2.45;;;;;;;8.91;90.32;102116.53;5006563;28;20042;-55
2023/04/20 06:56:40;;;;;;;6.90;2.40;;;;;;;9.04;91.50;102125.25;5027341;28;20170;-56
2023/04/20 06:59:05;;;;;;;2.88;2.03;;;;;;;9.04;91.50;102119.09;5028444;28;20548;-59
2023/04/20 07:01:31;;;;;;;7.97;2.42;;;;;;;8.97;93.67;102113.88;5025066;28;20072;-58
2023/04/20 07:03:56;;;;;;;8.68;2.65;;;;;;;9.03;94.63;102104.22;5026321;28;20112;-57
2023/04/20 07:06:21;;;;;;;6.32;2.70;;;;;;;8.72;99.48;102097.41;5036598;28;20305;-58
2023/04/20 07:08:47;;;;;;;8.23;2.78;;;;;;;8.67;98.33;102100.03;5045684;28;20040;-62
2023/04/20 07:11:12;;;;;;;8.05;2.72;;;;;;;8.83;98.18;102115.75;5026990;28;20018;-60
2023/04/20 07:13:37;;;;;;;4.55;2.47;;;;;;;8.90;98.58;102114.81;5007635;28;20041;-61
2023/04/20 07:16:03;;;;;;;5.55;2.55;;;;;;;8.95;96.97;102114.78;5014168;28;20495;-58
2023/04/20 07:18:28;;;;;;;5.40;2.67;;;;;;;8.67;98.98;102120.22;5027848;28;20059;-58
2023/04/20 07:20:54;;;;;;;11.07;2.70;;;;;;;8.74;99.15;102121.03;5025158;28;20068;-57
2023/04/20 07:23:20;;;;;;;5.65;2.88;;;;;;;8.67;99.07;102125.47;5026495;28;20029;-57
2023/04/20 07:25:45;;;;;;;6.20;2.35;;;;;;;8.74;99.65;102118.41;5025611;28;20048;-58
2023/04/20 07:28:11;;;;;;;4.43;2.83;;;;;;;8.49;100.00;102116.75;5027090;28;20064;-58
2023/04/20 07:30:36;;;;;;;4.25;2.70;;;;;;;8.49;100.00;102114.09;5026200;28;20112;-57
2023/04/20 07:33:02;;;;;;;4.05;2.50;;;;;;;8.41;100.00;102123.78;5025702;28;20604;-61
2023/04/20 07:35:27;;;;;;;6.72;2.75;;;;;;;8.49;100.00;102116.75;5027649;28;20029;-59
2023/04/20 07:37:52;;;;;;;5.05;2.65;;;;;;;8.47;100.00;102118.53;5028807;28;20022;-59
2023/04/20 07:40:18;;;;;;;6.35;2.70;;;;;;;8.31;100.00;102126.44;5027164;28;20060;-61
2023/04/20 07:42:43;;;;;;;5.57;2.67;;;;;;;8.30;100.00;102119.44;5015025;28;20118;-59
2023/04/20 07:45:10;;;;;;;8.38;2.88;;;;;;;7.86;100.00;102120.47;5025938;28;20381;-61
2023/04/20 07:47:35;;;;;;;5.75;2.65;;;;;;;7.99;100.00;102124.81;5023167;28;20510;-60
2023/04/20 07:50:01;;;;;;;8.30;2.53;;;;;;;7.86;100.00;102120.47;5026449;28;20035;-62
2023/04/20 07:52:27;;;;;;;4.20;2.83;;;;;;;7.91;100.00;102123.94;5020357;28;20037;-60
2023/04/20 07:54:58;;;;;;;10.68;3.28;;;;;;;8.08;100.00;102123.91;5026770;28;20039;-54
2023/04/20 07:57:24;;;;;;;6.93;3.45;;;;;;;7.73;100.00;102112.59;5027261;28;20048;-55
2023/04/20 07:59:50;;;;;;;8.73;3.13;;;;;;;7.59;100.00;102121.34;5039939;28;20025;-60
2023/04/20 08:02:16;;;;;;;7.35;3.15;;;;;;;7.44;100.00;102121.38;5025959;28;20115;-59
2023/04/20 08:04:43;;;;;;;6.43;3.35;;;;;;;7.10;100.00;102127.44;5026203;28;20067;-61
2023/04/20 08:07:09;;;;;;;9.73;3.30;;;;;;;7.27;100.00;102130.09;5026925;28;20017;-63
2023/04/20 08:09:34;;;;;;;5.47;3.38;;;;;;;7.18;100.00;102130.09;5026841;28;20083;-61
2023/04/20 08:12:00;;;;;;;6.65;3.58;;;;;;;7.23;100.00;102128.38;5024197;28;20072;-59
2023/04/20 08:14:25;;;;;;;14.63;4.22;;;;;;;7.22;100.00;102123.97;5027643;28;20108;-61
2023/04/20 08:16:51;;;;;;;6.72;3.10;;;;;;;7.15;100.00;102136.22;5026436;28;20041;-57
2023/04/20 08:19:16;;;;;;;8.07;3.85;;;;;;;7.55;100.00;102130.09;5027209;28;20075;-64
2023/04/20 08:21:42;;;;;;;8.90;3.72;;;;;;;7.41;100.00;102124.00;5024495;28;20029;-59
2023/04/20 08:24:07;;;;;;;6.07;3.10;;;;;;;7.41;100.00;102119.59;5026144;28;20017;-57
2023/04/20 08:26:33;;;;;;;5.82;3.22;;;;;;;7.53;100.00;102112.63;5026765;28;20035;-59
2023/04/20 08:28:59;;;;;;;5.03;3.63;;;;;;;7.52;100.00;102110.84;5026631;28;20407;-61
2023/04/20 08:31:25;;;;;;;8.15;3.42;;;;;;;7.25;100.00;102113.50;5024723;28;20311;-58
2023/04/20 08:33:50;;;;;;;8.57;3.60;;;;;;;7.06;100.00;102116.09;5021974;28;20064;-61
2023/04/20 08:36:16;;;;;;;4.28;3.22;;;;;;;7.35;100.00;102108.25;5025204;28;20049;-60
2023/04/20 08:38:41;;;;;;;6.28;3.33;;;;;;;7.18;100.00;102114.38;5023167;28;20408;-57
2023/04/20 08:41:07;;;;;;;5.63;3.53;;;;;;;7.35;100.00;102108.25;5026094;28;20040;-60
2023/04/20 08:43:32;;;;;;;6.82;3.17;;;;;;;7.28;100.00;102103.00;5026094;28;20420;-60
2023/04/20 08:46:00;;;;;;;11.38;3.60;;;;;;;7.35;100.00;102103.00;5025653;28;20479;-60
2023/04/20 08:48:32;;;;;;;5.90;4.07;;;;;;;7.29;100.00;102096.88;5030412;28;20096;-58
2023/04/20 08:50:58;;;;;;;7.43;3.72;;;;;;;7.03;100.00;102102.09;5025750;28;20047;-59
2023/04/20 08:53:23;;;;;;;8.02;3.92;;;;;;;7.15;100.00;102086.41;5024517;28;20601;-61
2023/04/20 08:55:49;;;;;;;5.13;3.58;;;;;;;7.26;100.00;102093.41;5006285;28;20038;-58
2023/04/20 08:58:15;;;;;;;9.15;4.38;;;;;;;7.43;100.00;102090.75;5005120;28;20037;-60
2023/04/20 09:00:48;;;;;;;11.68;4.40;;;;;;;7.51;100.00;102077.66;5020685;28;20412;-59
2023/04/20 09:03:13;;;;;;;12.15;4.32;;;;;;;7.62;100.00;102096.00;5005153;28;20500;-60
2023/04/20 09:05:39;;;;;;;4.82;3.22;;;;;;;7.74;100.00;102084.63;5006378;28;20156;-62
2023/04/20 09:08:04;;;;;;;8.27;3.70;;;;;;;7.75;100.00;102079.38;5006291;28;20105;-59
2023/04/20 09:10:43;;;;;;;6.88;3.45;;;;;;;7.68;100.00;102077.63;5029964;28;20029;-57
2023/04/20 09:13:20;;;;;;;6.78;3.65;;;;;;;7.68;100.00;102088.13;5024813;28;20033;-58
2023/04/20 09:15:46;;;;;;;6.80;3.70;;;;;;;7.94;100.00;102084.56;5024454;28;20032;-56
2023/04/20 09:18:13;;;;;;;6.63;3.80;;;;;;;8.19;100.00;102076.63;5024380;28;20037;-54
2023/04/20 09:20:38;;;;;;;5.78;3.90;;;;;;;7.71;100.00;102060.13;5016378;28;20037;-55
2023/04/20 09:23:14;;;;;;;10.43;3.97;;;;;;;7.79;100.00;102075.84;5024718;28;20013;-55
2023/04/20 09:25:41;;;;;;;8.57;3.78;;;;;;;7.42;100.00;102074.16;5015228;28;20507;-57
2023/04/20 09:28:07;;;;;;;9.20;3.65;;;;;;;7.57;100.00;102065.41;5004748;28;20421;-60
2023/04/20 09:30:38;;;;;;;7.72;4.03;;;;;;;7.93;100.00;102074.94;5010776;28;20052;-55
2023/04/20 09:33:06;;;;;;;11.05;3.78;;;;;;;7.96;100.00;102067.06;5033673;28;20100;-56
2023/04/20 09:35:32;;;;;;;11.27;4.10;;;;;;;7.80;100.00;102067.09;5023226;28;20017;-61
2023/04/20 09:37:57;;;;;;;4.88;3.40;;;;;;;7.88;100.00;102074.06;5021479;28;20037;-60
2023/04/20 09:40:24;;;;;;;7.50;3.58;;;;;;;8.44;100.00;102064.25;5023443;28;20476;-59
2023/04/20 09:42:50;;;;;;;7.70;4.05;;;;;;;8.50;100.00;102060.72;5024079;28;20022;-59
2023/04/20 09:45:16;;;;;;;5.82;3.85;;;;;;;8.05;100.00;102050.41;5023104;28;20457;-56
2023/04/20 09:47:43;;;;;;;6.20;3.30;;;;;;;8.41;100.00;102050.25;5023419;28;20332;-58
2023/04/20 09:50:12;;;;;;;6.65;3.30;;;;;;;8.41;100.00;102059.00;5033696;28;20384;-60
2023/04/20 09:52:37;;;;;;;5.05;3.65;;;;;;;8.49;100.00;102045.81;5012348;28;20052;-59
2023/04/20 09:55:05;;;;;;;9.15;3.40;;;;;;;8.62;100.00;102044.03;5013042;28;20065;-55
2023/04/20 09:57:31;;;;;;;9.68;3.47;;;;;;;8.66;100.00;102039.63;5010933;28;20041;-62
2023/04/20 09:59:58;;;;;;;5.45;3.55;;;;;;;8.92;100.00;102041.19;5010039;28;20018;-61
2023/04/20 10:02:24;;;;;;;9.40;4.65;;;;;;;9.33;100.00;102042.59;5022923;28;20021;-59
2023/04/20 10:04:57;;;;;;;4.57;3.22;;;;;;;9.72;100.00;102033.44;5005731;28;20042;-58
2023/04/20 10:07:26;;;;;;;5.55;3.47;;;;;;;9.89;100.00;102035.00;5002840;28;20022;-62
2023/04/20 10:10:10;;;;;;;13.07;3.63;;;;;;;9.82;100.00;102029.81;5010325;28;20112;-57
2023/04/20 10:12:52;;;;;;;9.90;4.20;;;;;;;9.63;100.00;102031.78;5021263;28;20033;-58
2023/04/20 10:15:19;;;;;;;6.45;3.83;;;;;;;9.17;100.00;102027.84;5022155;28;20536;-56
2023/04/20 10:17:44;;;;;;;5.40;3.58;;;;;;;9.56;100.00;102032.75;5027310;28;20204;-58
2023/04/20 10:20:27;;;;;;;8.05;3.60;;;;;;;9.92;100.00;102019.19;5027425;28;20081;-59
2023/04/20 10:22:53;;;;;;;5.43;3.70;;;;;;;9.68;100.00;102023.84;5030653;28;20499;-57
2023/04/20 10:25:25;;;;;;;8.18;3.10;;;;;;;9.77;100.00;102021.09;5025346;28;20041;-60
2023/04/20 10:28:04;;;;;;;6.30;3.22;;;;;;;9.56;100.00;102020.47;5030850;28;20052;-60
2023/04/20 10:30:30;;;;;;;7.55;4.55;;;;;;;9.31;100.00;102025.09;5032328;28;20506;-59
2023/04/20 10:33:04;;;;;;;4.13;3.47;;;;;;;9.75;100.00;102020.25;5031177;28;20034;-62
2023/04/20 10:35:59;;;;;;;7.13;3.50;;;;;;;10.05;100.00;102020.75;5032741;28;20091;-57
2023/04/20 10:38:34;;;;;;;8.15;3.20;;;;;;;9.83;100.00;102015.78;5029891;28;20471;-61
2023/04/20 10:41:09;;;;;;;3.58;3.15;;;;;;;9.86;100.00;102022.75;5030237;28;20109;-58
2023/04/20 10:43:34;;;;;;;6.05;3.45;;;;;;;10.28;100.00;101995.00;5030146;28;20083;-58
2023/04/20 10:46:00;;;;;;;4.68;3.42;;;;;;;10.72;100.00;102003.19;5031229;28;20033;-58
2023/04/20 10:48:25;;;;;;;4.00;3.50;;;;;;;10.99;100.00;102014.19;5032390;28;20021;-57
2023/04/20 10:50:50;;;;;;;6.47;3.53;;;;;;;10.35;100.00;102008.09;5030733;28;20026;-58
2023/04/20 10:53:22;;;;;;;7.78;3.20;;;;;;;10.23;100.00;102005.59;5029725;28;20216;-61
2023/04/20 10:55:58;;;;;;;6.82;3.78;;;;;;;10.62;100.00;101997.19;5026296;28;20035;-58
2023/04/20 10:58:24;;;;;;;7.20;3.97;;;;;;;10.53;100.00;102010.53;5030466;28;20083;-60
2023/04/20 11:00:58;;;;;;;5.68;3.47;;;;;;;10.69;100.00;101993.53;5030459;28;20923;-61
2023/04/20 11:03:25;;;;;;;3.42;3.13;;;;;;;10.64;100.00;101999.78;5029187;28;20040;-60
2023/04/20 11:05:50;;;;;;;4.78;3.17;;;;;;;10.61;100.00;101998.09;5029248;28;20117;-57
2023/04/20 11:08:16;;;;;;;5.15;3.60;;;;;;;10.25;100.00;101993.31;5030340;28;20116;-60
2023/04/20 11:10:41;;;;;;;5.47;3.85;;;;;;;10.43;100.00;101991.28;5030360;28;20476;-54
2023/04/20 11:13:18;;;;;;;3.95;3.47;;;;;;;10.05;100.00;101989.16;5029394;28;20028;-60
2023/04/20 11:15:43;;;;;;;6.53;4.05;;;;;;;10.18;100.00;101983.75;5029757;28;20045;-56
2023/04/20 11:18:10;;;;;;;7.18;4.55;;;;;;;10.46;100.00;101988.66;5019077;28;20057;-58
2023/04/20 11:20:35;;;;;;;9.68;4.15;;;;;;;10.71;100.00;101980.34;5031304;28;20443;-59
2023/04/20 11:23:03;;;;;;;6.78;4.20;;;;;;;10.82;100.00;101972.28;5031190;28;20021;-60